• Join FlightAware (Why Join?)
  • Login
  • US Flag 
10:01PM EST


 

Airport Tracker/Info


-or-


 

Live Flight TrackerFlight Track Log ✈ XOJ552 ✈ 21-Aug-2013 ✈ KLAX - KGPI

Flight Track Log - Related Links

Times and Time Zones

All times are in EDT time to prevent confusion due to time zone crossing. See the XOJ552 flight status page for this flight to view local times or setup timezone preferences in your user account.

Time Position Orientation Groundspeed Altitude Reporting Facility
EDT Latitude Longitude Course Direction KTS MPH feet Rate Location/Type
07:27PM 33.9333 -118.4833 338° Northwest 249 287 4,500  Level Southern California TRACON
07:28PM 33.9225 -118.5786 262° West 260 299 8,700 2,190 Climbing Los Angeles Center
07:29PM 33.9603 -118.6650 298° West 321 369 9,100 194 Climbing Los Angeles Center
07:30PM 34.0453 -118.7042 339° North 315 362 9,100 48 Level Los Angeles Center
07:31PM 34.1150 -118.6522 32° Northeast 304 350 9,200 1,258 Climbing Los Angeles Center
07:32PM 34.2042 -118.6578 357° North 321 369 11,700 2,928 Climbing Los Angeles Center
07:33PM 34.4012 -118.6590 338° Northwest  Level FlightAware Approximate
07:34PM 34.2947 -118.6761 351° North 326 375 15,300  Level Los Angeles Center
07:35PM 34.3986 -118.6936 352° North 379 436 17,900 2,274 Climbing Los Angeles Center
07:36PM 34.5356 -118.7161 352° North 415 478 20,000 2,032 Climbing Los Angeles Center
07:37PM 34.6517 -118.7378 351° North 418 481 22,100 1,742 Climbing Los Angeles Center
07:38PM 34.7703 -118.7592 352° North 431 496 23,600 1,984 Climbing Los Angeles Center
07:39PM 34.8903 -118.7803 352° North 434 499 26,200 2,323 Climbing Los Angeles Center
07:40PM 35.0178 -118.8033 352° North 450 518 28,400 2,016 Climbing Los Angeles Center
07:41PM 35.1467 -118.8261 352° North 466 536 30,400 1,872 Climbing Los Angeles Center
07:42PM 35.3094 -118.8536 352° North 488 562 32,300 1,694 Climbing Los Angeles Center
07:43PM 35.4467 -118.8794 351° North 496 571 33,900 1,548 Climbing Los Angeles Center
07:44PM 35.5872 -118.9053 351° North 506 582 35,500 1,742 Climbing Los Angeles Center
07:45PM 35.7269 -118.9311 351° North 510 587 37,500 1,714 Climbing Los Angeles Center
07:46PM 35.9386 -118.9683 352° North 492 566 39,900 980 Climbing Oakland Center
07:47PM 36.0747 -118.9931 352° North 494 568 40,000 49 Climbing Oakland Center
07:49PM 36.2108 -119.0197 351° North 496 571 40,000  Level Oakland Center
07:50PM 36.3475 -119.0439 352° North 497 572 40,000 197 Level Oakland Center
07:51PM 36.4853 -119.0711 351° North 501 577 40,400 927 Climbing Oakland Center
07:52PM 36.6172 -119.0928 352° North 487 560 41,900 1,268 Climbing Oakland Center
07:53PM 36.7742 -119.1228 351° North 477 549 43,000 537 Climbing Oakland Center
07:54PM 36.9094 -119.1486 351° North 487 560 43,000  Level Oakland Center
07:55PM 37.0458 -119.1747 351° North 496 571 43,000  Level Oakland Center
07:56PM 37.1831 -119.1950 353° North 497 572 43,000  Level Oakland Center
07:57PM 37.3189 -119.1706 North 493 567 43,000  Level Oakland Center
07:58PM 37.4536 -119.1400 10° North 494 568 43,000  Level Oakland Center
07:59PM 37.6086 -119.1036 11° North 491 565 43,000  Level Oakland Center
08:00PM 37.7253 -119.0767 10° North 491 565 43,000  Level Oakland Center
08:01PM 37.8783 -119.0425 10° North 490 564 43,000  Level Oakland Center
08:02PM 38.0117 -119.0111 11° North 487 560 43,000  Level Oakland Center
08:03PM 38.1442 -118.9794 11° North 483 556 43,000  Level Oakland Center
08:04PM 38.2700 -118.9500 10° North 485 558 43,000  Level Oakland Center
08:05PM 38.4042 -118.9186 10° North 488 562 43,000  Level Oakland Center
08:06PM 38.5633 -118.8800 11° North 486 559 43,000  Level Oakland Center
08:07PM 38.6956 -118.8497 10° North 482 555 43,000  Level Oakland Center
08:08PM 38.8283 -118.8183 10° North 482 555 43,000  Level Oakland Center
08:09PM 38.9606 -118.7858 11° North 484 557 43,000  Level Oakland Center
08:10PM 39.0928 -118.7544 10° North 484 557 43,000  Level Oakland Center
08:11PM 39.2358 -118.7197 11° North 481 554 43,000  Level Oakland Center
08:12PM 39.3706 -118.6867 11° North 486 559 43,000  Level Oakland Center
08:13PM 39.5086 -118.6533 11° North 491 565 43,000  Level Oakland Center
08:14PM 39.6403 -118.6217 10° North 485 558 43,000  Level Oakland Center
08:15PM 39.7719 -118.5894 11° North 483 556 43,000  Level Oakland Center
08:16PM 39.9044 -118.5561 11° North 483 556 43,000  Level Oakland Center
08:17PM 40.0361 -118.5250 10° North 482 555 43,000  Level Oakland Center
08:18PM 40.1686 -118.4903 11° North 484 557 43,000  Level Oakland Center
08:19PM 40.2969 -118.4428 16° North 482 555 43,000  Level Oakland Center
08:20PM 40.4275 -118.3975 15° North 483 556 43,000  Level Oakland Center
08:21PM 40.5722 -118.3486 14° North 484 557 43,000  Level Oakland Center
08:22PM 40.6986 -118.3036 15° North 488 562 43,000  Level Oakland Center
08:23PM 40.8464 -118.2533 14° North 489 563 43,000  Level Oakland Center
08:24PM 40.9758 -118.2078 15° North 495 570 43,000 -49 Level Oakland Center
08:25PM 41.1022 -118.1628 15° North 494 568 42,900  Descending Oakland Center
08:26PM 41.2514 -118.1086 15° North 495 570 43,000 49 Climbing Oakland Center
08:27PM 41.3772 -118.0672 14° North 488 562 43,000  Level Oakland Center
08:28PM 41.4431 -118.0411 17° North 493 567 43,000  Level Salt Lake Center
08:29PM 41.5900 -117.9906 14° North 489 563 43,000  Level Salt Lake Center
08:30PM 41.7175 -117.9439 15° North 492 566 43,000  Level Salt Lake Center
08:31PM 41.8639 -117.8914 15° North 489 563 43,000  Level Salt Lake Center
08:32PM 41.9911 -117.8411 16° North 494 568 43,000  Level Salt Lake Center
08:33PM 42.1375 -117.7869 15° North 487 560 43,000  Level Salt Lake Center
08:34PM 42.2628 -117.7408 15° North 486 559 43,000  Level Salt Lake Center
08:35PM 42.4089 -117.6869 15° North 486 559 43,000  Level Salt Lake Center
08:36PM 42.5342 -117.6408 15° North 486 559 43,000  Level Salt Lake Center
08:37PM 42.6606 -117.5942 15° North 489 563 43,000  Level Salt Lake Center
08:38PM 42.8075 -117.5392 15° North 490 564 43,000  Level Salt Lake Center
08:39PM 42.9328 -117.4942 15° North 486 559 43,000  Level Salt Lake Center
08:40PM 43.0831 -117.4364 16° North 490 564 43,000  Level Salt Lake Center
08:41PM 43.2203 -117.3847 15° North 489 563 43,000  Level Salt Lake Center
08:42PM 43.3469 -117.3369 15° North 489 563 43,000  Level Salt Lake Center
08:43PM 43.4847 -117.2839 16° North 491 565 43,000  Level Salt Lake Center
08:44PM 43.6225 -117.2314 15° North 493 567 43,000  Level Salt Lake Center
08:45PM 43.7603 -117.1783 16° North 492 566 43,000  Level Salt Lake Center
08:46PM 43.8981 -117.1256 15° North 491 565 43,000  Level Salt Lake Center
08:47PM 44.0247 -117.0761 16° North 490 564 43,000  Level Salt Lake Center
08:49PM 44.1639 -117.0219 16° North 491 565 43,000  Level Salt Lake Center
08:50PM 44.2942 -116.9703 16° North 490 564 43,000 -527 Level Salt Lake Center
08:51PM 44.4753 -116.8986 16° North 485 558 41,700 -805 Descending Salt Lake Center
08:52PM 44.6064 -116.8469 16° North 492 566 41,000 -339 Descending Salt Lake Center
08:53PM 44.7372 -116.7956 16° North 491 565 41,000  Level Salt Lake Center
08:54PM 44.8944 -116.7308 16° North 493 567 41,000  Level Salt Lake Center
08:55PM 45.0250 -116.6794 16° North 491 565 41,000  Level Salt Lake Center
08:56PM 45.1558 -116.6267 16° North 492 566 41,000  Level Salt Lake Center
08:57PM 45.2906 -116.5708 16° North 494 568 41,000  Level Salt Lake Center
08:58PM 45.4217 -116.5169 16° North 495 570 41,000  Level Salt Lake Center
08:59PM 45.5533 -116.4644 16° North 494 568 41,000  Level Salt Lake Center
09:00PM 45.6850 -116.4094 16° North 496 571 41,000  Level Salt Lake Center
09:01PM 45.8167 -116.3542 16° North 495 570 41,000  Level Salt Lake Center
09:02PM 45.9747 -116.2872 16° North 495 570 41,000  Level Salt Lake Center
09:03PM 46.1064 -116.2317 16° North 496 571 41,000 -49 Level Salt Lake Center
09:04PM 46.2383 -116.1761 16° North 497 572 40,900  Descending Salt Lake Center
09:05PM 46.3706 -116.1208 16° North 497 572 41,000 49 Climbing Salt Lake Center
09:06PM 46.5022 -116.0650 16° North 497 572 41,000  Level Salt Lake Center
09:07PM 46.6347 -116.0072 17° North 499 574 41,000 -98 Level Salt Lake Center
09:08PM 46.7886 -115.9411 16° North 501 577 40,800 -1,073 Descending Salt Lake Center
09:09PM 46.9183 -115.8817 17° North 496 571 38,800 -2,195 Descending Salt Lake Center
09:10PM 47.0475 -115.8275 16° North 487 560 36,300 -2,732 Descending Salt Lake Center
09:12PM 47.1719 -115.7717 17° North 474 545 33,200 -3,171 Descending Salt Lake Center
09:13PM 47.2972 -115.7167 17° North 470 541 29,800 -3,268 Descending Salt Lake Center
09:14PM 47.4239 -115.6594 17° North 474 545 26,500 -3,122 Descending Salt Lake Center
09:15PM 47.5153 -115.5261 45° Northeast 463 533 23,400 -3,148 Descending Salt Lake Center
09:16PM 47.6011 -115.3994 45° Northeast 449 517 20,100 -3,122 Descending Salt Lake Center
09:17PM 47.6836 -115.2756 45° Northeast 437 503 17,000 -3,317 Descending Salt Lake Center
09:18PM 47.7753 -115.1339 46° Northeast 415 478 13,300 -3,268 Descending Salt Lake Center
09:19PM 47.8467 -115.0244 46° Northeast 393 452 10,300 -1,659 Descending Salt Lake Center
09:20PM 47.9131 -114.9225 46° Northeast 368 423 9,900 -683 Descending Salt Lake Center
09:21PM 47.9708 -114.8325 46° Northeast 320 368 8,900 -439 Descending Salt Lake Center
09:22PM 48.0269 -114.7450 46° Northeast 297 342 9,000 49 Climbing Salt Lake Center
09:23PM 48.0811 -114.6617 46° Northeast 288 331 9,000  Level Salt Lake Center
09:24PM 48.1278 -114.5872 47° Northeast 263 303 9,000  Level Salt Lake Center
09:25PM 48.1278 -114.5050 90° East 236 272 9,000 -885 Level Salt Lake Center
09:26PM 48.1439 -114.4294 72° East 224 258 7,200 -1,659 Descending Salt Lake Center
09:27PM 48.1897 -114.3819 35° Northeast 211 243 5,600 -1,171 Descending Salt Lake Center
09:28PM 48.2217 -114.3478 35° Northeast 169 194 4,800 -787 Descending Salt Lake Center
09:29PM 48.2583 -114.3106 34° Northeast 141 162 4,000 -787 Descending Salt Lake Center
09:31PM 48.3000 -114.2500 North  Level FlightAware Approximate
09:38PM 48.3105 -114.2560 North  Level Estimated
09:39PM 48.3105 -114.2560 North  Level Estimated
09:40PM 48.3105 -114.2560 North  Level Estimated